sensor_id;sensor_type;location;lat;lon;timestamp;P1;durP1;ratioP1;P2;durP2;ratioP2
55082;SDS011;40978;52.850;6.506;2022-10-23T00:00:22;26.95;;;19.25;;
55082;SDS011;40978;52.850;6.506;2022-10-23T00:02:51;35.28;;;21.13;;
55082;SDS011;40978;52.850;6.506;2022-10-23T00:05:18;28.58;;;19.77;;
55082;SDS011;40978;52.850;6.506;2022-10-23T00:07:44;36.03;;;20.58;;
55082;SDS011;40978;52.850;6.506;2022-10-23T00:10:17;24.77;;;17.33;;
55082;SDS011;40978;52.850;6.506;2022-10-23T00:12:43;27.35;;;17.40;;
55082;SDS011;40978;52.850;6.506;2022-10-23T00:15:09;26.33;;;17.80;;
55082;SDS011;40978;52.850;6.506;2022-10-23T00:17:35;24.70;;;17.83;;
55082;SDS011;40978;52.850;6.506;2022-10-23T00:20:01;44.35;;;23.17;;
55082;SDS011;40978;52.850;6.506;2022-10-23T00:22:27;29.23;;;20.70;;
55082;SDS011;40978;52.850;6.506;2022-10-23T00:24:53;39.55;;;22.30;;
55082;SDS011;40978;52.850;6.506;2022-10-23T00:27:18;32.40;;;19.75;;
55082;SDS011;40978;52.850;6.506;2022-10-23T00:29:44;24.40;;;19.65;;
55082;SDS011;40978;52.850;6.506;2022-10-23T00:32:09;31.38;;;20.98;;
55082;SDS011;40978;52.850;6.506;2022-10-23T00:34:35;30.75;;;20.88;;
55082;SDS011;40978;52.850;6.506;2022-10-23T00:37:01;43.10;;;22.48;;
55082;SDS011;40978;52.850;6.506;2022-10-23T00:39:26;60.10;;;26.83;;
55082;SDS011;40978;52.850;6.506;2022-10-23T00:41:52;43.72;;;24.02;;
55082;SDS011;40978;52.850;6.506;2022-10-23T00:46:47;32.92;;;20.08;;
55082;SDS011;40978;52.850;6.506;2022-10-23T00:49:13;35.97;;;21.60;;
55082;SDS011;40978;52.850;6.506;2022-10-23T00:51:40;56.10;;;27.42;;
55082;SDS011;40978;52.850;6.506;2022-10-23T00:54:15;47.65;;;25.58;;
55082;SDS011;40978;52.850;6.506;2022-10-23T00:56:43;35.03;;;21.80;;
55082;SDS011;40978;52.850;6.506;2022-10-23T00:59:10;39.92;;;24.38;;
55082;SDS011;40978;52.850;6.506;2022-10-23T01:01:36;32.40;;;20.95;;
55082;SDS011;40978;52.850;6.506;2022-10-23T01:04:02;62.50;;;29.02;;
55082;SDS011;40978;52.850;6.506;2022-10-23T01:06:32;36.75;;;21.98;;
55082;SDS011;40978;52.850;6.506;2022-10-23T01:09:27;62.63;;;25.42;;
55082;SDS011;40978;52.850;6.506;2022-10-23T01:11:57;44.40;;;24.27;;
55082;SDS011;40978;52.850;6.506;2022-10-23T01:14:38;34.28;;;20.17;;
55082;SDS011;40978;52.850;6.506;2022-10-23T01:17:31;33.88;;;20.77;;
55082;SDS011;40978;52.850;6.506;2022-10-23T01:25:53;32.75;;;20.65;;
55082;SDS011;40978;52.850;6.506;2022-10-23T01:31:14;83.72;;;30.40;;
55082;SDS011;40978;52.850;6.506;2022-10-23T01:33:50;41.40;;;23.48;;
55082;SDS011;40978;52.850;6.506;2022-10-23T01:36:23;49.13;;;24.35;;
55082;SDS011;40978;52.850;6.506;2022-10-23T01:44:03;56.30;;;25.08;;
55082;SDS011;40978;52.850;6.506;2022-10-23T01:46:34;47.67;;;22.23;;
55082;SDS011;40978;52.850;6.506;2022-10-23T01:49:02;33.88;;;20.00;;
55082;SDS011;40978;52.850;6.506;2022-10-23T01:51:30;60.10;;;23.92;;
55082;SDS011;40978;52.850;6.506;2022-10-23T01:53:57;54.13;;;23.95;;
55082;SDS011;40978;52.850;6.506;2022-10-23T01:56:26;45.95;;;21.33;;
55082;SDS011;40978;52.850;6.506;2022-10-23T01:58:55;25.80;;;17.17;;
55082;SDS011;40978;52.850;6.506;2022-10-23T02:01:25;26.83;;;18.27;;
55082;SDS011;40978;52.850;6.506;2022-10-23T02:03:53;44.65;;;22.67;;
55082;SDS011;40978;52.850;6.506;2022-10-23T02:06:20;39.60;;;19.23;;
55082;SDS011;40978;52.850;6.506;2022-10-23T02:08:46;30.27;;;17.77;;
55082;SDS011;40978;52.850;6.506;2022-10-23T02:11:13;23.33;;;16.63;;
55082;SDS011;40978;52.850;6.506;2022-10-23T02:13:45;35.47;;;18.88;;
55082;SDS011;40978;52.850;6.506;2022-10-23T02:18:53;28.63;;;17.80;;
55082;SDS011;40978;52.850;6.506;2022-10-23T02:21:35;24.30;;;17.17;;
55082;SDS011;40978;52.850;6.506;2022-10-23T02:24:12;49.60;;;22.52;;
55082;SDS011;40978;52.850;6.506;2022-10-23T02:27:04;32.30;;;18.23;;
55082;SDS011;40978;52.850;6.506;2022-10-23T02:29:54;36.22;;;18.98;;
55082;SDS011;40978;52.850;6.506;2022-10-23T02:32:25;27.58;;;17.65;;
55082;SDS011;40978;52.850;6.506;2022-10-23T02:34:52;36.80;;;19.92;;
55082;SDS011;40978;52.850;6.506;2022-10-23T02:37:18;27.88;;;17.95;;
55082;SDS011;40978;52.850;6.506;2022-10-23T02:39:44;28.58;;;18.00;;
55082;SDS011;40978;52.850;6.506;2022-10-23T02:42:12;34.55;;;19.67;;
55082;SDS011;40978;52.850;6.506;2022-10-23T02:47:33;28.60;;;17.65;;
55082;SDS011;40978;52.850;6.506;2022-10-23T03:00:32;43.75;;;21.08;;
55082;SDS011;40978;52.850;6.506;2022-10-23T03:03:06;37.45;;;18.92;;
55082;SDS011;40978;52.850;6.506;2022-10-23T03:08:03;36.67;;;18.05;;
55082;SDS011;40978;52.850;6.506;2022-10-23T03:10:30;44.60;;;20.27;;
55082;SDS011;40978;52.850;6.506;2022-10-23T03:12:56;40.50;;;20.83;;
55082;SDS011;40978;52.850;6.506;2022-10-23T03:15:21;45.90;;;20.60;;
55082;SDS011;40978;52.850;6.506;2022-10-23T03:17:47;50.30;;;22.67;;
55082;SDS011;40978;52.850;6.506;2022-10-23T03:20:13;51.05;;;22.27;;
55082;SDS011;40978;52.850;6.506;2022-10-23T03:22:38;58.55;;;24.13;;
55082;SDS011;40978;52.850;6.506;2022-10-23T03:25:04;47.85;;;23.00;;
55082;SDS011;40978;52.850;6.506;2022-10-23T03:27:31;53.35;;;22.90;;
55082;SDS011;40978;52.850;6.506;2022-10-23T03:29:57;35.90;;;19.83;;
55082;SDS011;40978;52.850;6.506;2022-10-23T03:32:22;71.50;;;26.48;;
55082;SDS011;40978;52.850;6.506;2022-10-23T03:34:48;55.00;;;23.05;;
55082;SDS011;40978;52.850;6.506;2022-10-23T03:37:14;61.50;;;26.02;;
55082;SDS011;40978;52.850;6.506;2022-10-23T03:39:39;44.92;;;21.95;;
55082;SDS011;40978;52.850;6.506;2022-10-23T03:42:05;64.13;;;26.75;;
55082;SDS011;40978;52.850;6.506;2022-10-23T03:44:30;61.20;;;25.17;;
55082;SDS011;40978;52.850;6.506;2022-10-23T03:46:58;35.70;;;21.20;;
55082;SDS011;40978;52.850;6.506;2022-10-23T03:49:24;47.70;;;23.85;;
55082;SDS011;40978;52.850;6.506;2022-10-23T03:51:49;53.28;;;24.98;;
55082;SDS011;40978;52.850;6.506;2022-10-23T03:54:21;47.60;;;23.77;;
55082;SDS011;40978;52.850;6.506;2022-10-23T03:56:48;63.80;;;27.77;;
55082;SDS011;40978;52.850;6.506;2022-10-23T03:59:14;43.08;;;23.67;;
55082;SDS011;40978;52.850;6.506;2022-10-23T04:01:40;48.33;;;23.75;;
55082;SDS011;40978;52.850;6.506;2022-10-23T04:04:06;35.25;;;20.00;;
55082;SDS011;40978;52.850;6.506;2022-10-23T04:06:31;33.75;;;21.15;;
55082;SDS011;40978;52.850;6.506;2022-10-23T04:08:57;58.35;;;24.88;;
55082;SDS011;40978;52.850;6.506;2022-10-23T04:11:23;47.30;;;23.08;;
55082;SDS011;40978;52.850;6.506;2022-10-23T04:13:48;46.92;;;23.27;;
55082;SDS011;40978;52.850;6.506;2022-10-23T04:16:14;60.08;;;25.90;;
55082;SDS011;40978;52.850;6.506;2022-10-23T04:18:40;34.33;;;21.67;;
55082;SDS011;40978;52.850;6.506;2022-10-23T04:21:06;43.25;;;23.60;;
55082;SDS011;40978;52.850;6.506;2022-10-23T04:23:32;40.72;;;21.20;;
55082;SDS011;40978;52.850;6.506;2022-10-23T04:25:58;44.40;;;22.63;;
55082;SDS011;40978;52.850;6.506;2022-10-23T04:28:24;34.17;;;19.40;;
55082;SDS011;40978;52.850;6.506;2022-10-23T04:30:50;65.75;;;27.02;;
55082;SDS011;40978;52.850;6.506;2022-10-23T04:33:16;53.80;;;24.20;;
55082;SDS011;40978;52.850;6.506;2022-10-23T04:35:42;45.85;;;22.25;;
55082;SDS011;40978;52.850;6.506;2022-10-23T04:38:08;37.20;;;20.45;;
55082;SDS011;40978;52.850;6.506;2022-10-23T04:40:33;36.95;;;20.88;;
55082;SDS011;40978;52.850;6.506;2022-10-23T04:42:59;34.28;;;20.13;;
55082;SDS011;40978;52.850;6.506;2022-10-23T04:45:25;43.25;;;21.52;;
55082;SDS011;40978;52.850;6.506;2022-10-23T04:47:51;38.13;;;22.73;;
55082;SDS011;40978;52.850;6.506;2022-10-23T04:50:20;73.15;;;26.98;;
55082;SDS011;40978;52.850;6.506;2022-10-23T04:52:46;40.33;;;22.17;;
55082;SDS011;40978;52.850;6.506;2022-10-23T04:55:12;38.30;;;21.63;;
55082;SDS011;40978;52.850;6.506;2022-10-23T04:57:38;46.88;;;23.30;;
55082;SDS011;40978;52.850;6.506;2022-10-23T05:00:05;42.65;;;22.80;;
55082;SDS011;40978;52.850;6.506;2022-10-23T05:02:32;58.28;;;24.90;;
55082;SDS011;40978;52.850;6.506;2022-10-23T05:04:58;48.13;;;23.70;;
55082;SDS011;40978;52.850;6.506;2022-10-23T05:07:24;38.05;;;21.85;;
55082;SDS011;40978;52.850;6.506;2022-10-23T05:09:49;48.83;;;25.20;;
55082;SDS011;40978;52.850;6.506;2022-10-23T05:12:15;50.08;;;25.13;;
55082;SDS011;40978;52.850;6.506;2022-10-23T05:14:41;48.83;;;25.10;;
55082;SDS011;40978;52.850;6.506;2022-10-23T05:17:08;45.42;;;22.95;;
55082;SDS011;40978;52.850;6.506;2022-10-23T05:19:47;42.83;;;23.00;;
55082;SDS011;40978;52.850;6.506;2022-10-23T05:22:17;52.50;;;24.85;;
55082;SDS011;40978;52.850;6.506;2022-10-23T05:24:44;47.92;;;24.35;;
55082;SDS011;40978;52.850;6.506;2022-10-23T05:27:10;64.10;;;26.73;;
55082;SDS011;40978;52.850;6.506;2022-10-23T05:29:36;45.63;;;23.35;;
55082;SDS011;40978;52.850;6.506;2022-10-23T05:32:02;39.65;;;21.67;;
55082;SDS011;40978;52.850;6.506;2022-10-23T05:34:30;46.45;;;23.98;;
55082;SDS011;40978;52.850;6.506;2022-10-23T05:36:59;42.28;;;23.15;;
55082;SDS011;40978;52.850;6.506;2022-10-23T05:39:26;48.15;;;23.83;;
55082;SDS011;40978;52.850;6.506;2022-10-23T05:41:52;44.97;;;22.73;;
55082;SDS011;40978;52.850;6.506;2022-10-23T05:44:19;60.38;;;26.65;;
55082;SDS011;40978;52.850;6.506;2022-10-23T05:46:45;43.00;;;21.90;;
55082;SDS011;40978;52.850;6.506;2022-10-23T05:49:11;56.13;;;25.77;;
55082;SDS011;40978;52.850;6.506;2022-10-23T05:51:37;40.05;;;22.67;;
55082;SDS011;40978;52.850;6.506;2022-10-23T05:54:04;52.90;;;25.20;;
55082;SDS011;40978;52.850;6.506;2022-10-23T05:56:34;52.03;;;24.58;;
55082;SDS011;40978;52.850;6.506;2022-10-23T05:59:00;46.72;;;23.30;;
55082;SDS011;40978;52.850;6.506;2022-10-23T06:01:26;52.90;;;25.92;;
55082;SDS011;40978;52.850;6.506;2022-10-23T06:03:52;50.15;;;24.42;;
55082;SDS011;40978;52.850;6.506;2022-10-23T06:06:17;52.90;;;26.35;;
55082;SDS011;40978;52.850;6.506;2022-10-23T06:08:43;86.15;;;30.38;;
55082;SDS011;40978;52.850;6.506;2022-10-23T06:11:10;55.10;;;25.58;;
55082;SDS011;40978;52.850;6.506;2022-10-23T06:13:37;42.53;;;23.35;;
55082;SDS011;40978;52.850;6.506;2022-10-23T06:16:10;44.72;;;24.15;;
55082;SDS011;40978;52.850;6.506;2022-10-23T06:18:40;41.53;;;24.25;;
55082;SDS011;40978;52.850;6.506;2022-10-23T06:21:06;39.60;;;21.83;;
55082;SDS011;40978;52.850;6.506;2022-10-23T06:23:33;39.30;;;22.90;;
55082;SDS011;40978;52.850;6.506;2022-10-23T06:25:59;68.30;;;28.63;;
55082;SDS011;40978;52.850;6.506;2022-10-23T06:28:25;40.42;;;22.35;;
55082;SDS011;40978;52.850;6.506;2022-10-23T06:30:51;43.45;;;22.80;;
55082;SDS011;40978;52.850;6.506;2022-10-23T06:33:17;62.28;;;27.50;;
55082;SDS011;40978;52.850;6.506;2022-10-23T06:35:43;53.10;;;26.15;;
55082;SDS011;40978;52.850;6.506;2022-10-23T06:38:08;55.67;;;26.13;;
55082;SDS011;40978;52.850;6.506;2022-10-23T06:40:35;57.58;;;26.65;;
55082;SDS011;40978;52.850;6.506;2022-10-23T06:43:01;54.30;;;25.88;;
55082;SDS011;40978;52.850;6.506;2022-10-23T06:45:27;35.78;;;22.58;;
55082;SDS011;40978;52.850;6.506;2022-10-23T06:47:54;36.45;;;21.00;;
55082;SDS011;40978;52.850;6.506;2022-10-23T06:50:20;38.75;;;22.55;;
55082;SDS011;40978;52.850;6.506;2022-10-23T06:52:45;42.28;;;23.58;;
55082;SDS011;40978;52.850;6.506;2022-10-23T06:55:11;37.65;;;21.60;;
55082;SDS011;40978;52.850;6.506;2022-10-23T06:57:37;49.05;;;24.55;;
55082;SDS011;40978;52.850;6.506;2022-10-23T07:00:03;44.35;;;23.75;;
55082;SDS011;40978;52.850;6.506;2022-10-23T07:02:29;34.75;;;21.33;;
55082;SDS011;40978;52.850;6.506;2022-10-23T07:04:55;35.83;;;21.35;;
55082;SDS011;40978;52.850;6.506;2022-10-23T07:07:20;52.83;;;24.52;;
55082;SDS011;40978;52.850;6.506;2022-10-23T07:09:46;36.08;;;21.60;;
55082;SDS011;40978;52.850;6.506;2022-10-23T07:12:12;45.78;;;24.05;;
55082;SDS011;40978;52.850;6.506;2022-10-23T07:14:37;34.60;;;20.73;;
55082;SDS011;40978;52.850;6.506;2022-10-23T07:17:03;48.60;;;23.15;;
55082;SDS011;40978;52.850;6.506;2022-10-23T07:19:29;35.03;;;21.00;;
55082;SDS011;40978;52.850;6.506;2022-10-23T07:21:54;51.90;;;24.40;;
55082;SDS011;40978;52.850;6.506;2022-10-23T07:24:20;35.08;;;21.48;;
55082;SDS011;40978;52.850;6.506;2022-10-23T07:26:46;45.60;;;23.45;;
55082;SDS011;40978;52.850;6.506;2022-10-23T07:29:12;47.35;;;23.17;;
55082;SDS011;40978;52.850;6.506;2022-10-23T07:31:38;32.28;;;19.23;;
55082;SDS011;40978;52.850;6.506;2022-10-23T07:34:04;32.03;;;21.40;;
55082;SDS011;40978;52.850;6.506;2022-10-23T07:36:30;37.67;;;19.83;;
55082;SDS011;40978;52.850;6.506;2022-10-23T07:38:56;36.65;;;19.40;;
55082;SDS011;40978;52.850;6.506;2022-10-23T07:41:22;30.23;;;18.38;;
55082;SDS011;40978;52.850;6.506;2022-10-23T07:43:48;39.28;;;21.83;;
55082;SDS011;40978;52.850;6.506;2022-10-23T07:46:13;38.55;;;22.08;;
55082;SDS011;40978;52.850;6.506;2022-10-23T07:48:39;39.13;;;19.67;;
55082;SDS011;40978;52.850;6.506;2022-10-23T07:51:10;27.00;;;18.58;;
55082;SDS011;40978;52.850;6.506;2022-10-23T07:53:37;41.05;;;20.42;;
55082;SDS011;40978;52.850;6.506;2022-10-23T07:56:09;28.60;;;18.38;;
55082;SDS011;40978;52.850;6.506;2022-10-23T07:58:41;29.88;;;17.08;;
55082;SDS011;40978;52.850;6.506;2022-10-23T08:01:17;28.35;;;17.05;;
55082;SDS011;40978;52.850;6.506;2022-10-23T08:03:46;28.35;;;18.77;;
55082;SDS011;40978;52.850;6.506;2022-10-23T08:06:12;25.85;;;18.02;;
55082;SDS011;40978;52.850;6.506;2022-10-23T08:08:37;21.80;;;16.00;;
55082;SDS011;40978;52.850;6.506;2022-10-23T08:11:03;31.58;;;16.70;;
55082;SDS011;40978;52.850;6.506;2022-10-23T08:13:29;28.17;;;16.77;;
55082;SDS011;40978;52.850;6.506;2022-10-23T08:15:55;28.27;;;16.73;;
55082;SDS011;40978;52.850;6.506;2022-10-23T08:18:22;23.77;;;15.52;;
55082;SDS011;40978;52.850;6.506;2022-10-23T08:20:48;27.52;;;16.30;;
55082;SDS011;40978;52.850;6.506;2022-10-23T08:23:17;27.52;;;14.38;;
55082;SDS011;40978;52.850;6.506;2022-10-23T08:25:43;24.85;;;15.27;;
55082;SDS011;40978;52.850;6.506;2022-10-23T08:28:09;19.33;;;13.90;;
55082;SDS011;40978;52.850;6.506;2022-10-23T08:30:36;26.13;;;13.48;;
55082;SDS011;40978;52.850;6.506;2022-10-23T08:33:04;24.13;;;13.88;;
55082;SDS011;40978;52.850;6.506;2022-10-23T08:35:34;23.90;;;13.50;;
55082;SDS011;40978;52.850;6.506;2022-10-23T08:38:03;15.43;;;12.07;;
55082;SDS011;40978;52.850;6.506;2022-10-23T08:40:29;24.23;;;11.93;;
55082;SDS011;40978;52.850;6.506;2022-10-23T08:42:58;20.63;;;12.15;;
55082;SDS011;40978;52.850;6.506;2022-10-23T08:45:36;19.65;;;11.38;;
55082;SDS011;40978;52.850;6.506;2022-10-23T08:48:27;19.15;;;11.10;;
55082;SDS011;40978;52.850;6.506;2022-10-23T08:50:58;15.93;;;9.55;;
55082;SDS011;40978;52.850;6.506;2022-10-23T08:53:35;16.13;;;10.27;;
55082;SDS011;40978;52.850;6.506;2022-10-23T08:56:16;19.95;;;10.05;;
55082;SDS011;40978;52.850;6.506;2022-10-23T08:58:58;11.50;;;8.50;;
55082;SDS011;40978;52.850;6.506;2022-10-23T09:01:35;16.33;;;8.98;;
55082;SDS011;40978;52.850;6.506;2022-10-23T09:04:02;15.23;;;9.25;;
55082;SDS011;40978;52.850;6.506;2022-10-23T09:11:57;15.27;;;8.82;;
55082;SDS011;40978;52.850;6.506;2022-10-23T09:14:34;10.57;;;7.93;;
55082;SDS011;40978;52.850;6.506;2022-10-23T09:17:26;13.90;;;7.70;;
55082;SDS011;40978;52.850;6.506;2022-10-23T09:22:51;12.15;;;7.70;;
55082;SDS011;40978;52.850;6.506;2022-10-23T09:25:37;10.90;;;7.25;;
55082;SDS011;40978;52.850;6.506;2022-10-23T09:28:04;11.85;;;7.93;;
55082;SDS011;40978;52.850;6.506;2022-10-23T09:30:35;10.48;;;6.90;;
55082;SDS011;40978;52.850;6.506;2022-10-23T09:33:12;10.68;;;6.50;;
55082;SDS011;40978;52.850;6.506;2022-10-23T09:35:56;10.27;;;7.00;;
55082;SDS011;40978;52.850;6.506;2022-10-23T09:38:27;9.80;;;6.55;;
55082;SDS011;40978;52.850;6.506;2022-10-23T09:41:09;9.98;;;6.72;;
55082;SDS011;40978;52.850;6.506;2022-10-23T09:43:44;12.35;;;6.28;;
55082;SDS011;40978;52.850;6.506;2022-10-23T09:46:09;7.22;;;5.70;;
55082;SDS011;40978;52.850;6.506;2022-10-23T09:48:36;8.85;;;5.65;;
55082;SDS011;40978;52.850;6.506;2022-10-23T09:51:11;7.50;;;5.57;;
55082;SDS011;40978;52.850;6.506;2022-10-23T09:53:50;9.00;;;6.45;;
55082;SDS011;40978;52.850;6.506;2022-10-23T09:56:25;8.75;;;5.55;;
55082;SDS011;40978;52.850;6.506;2022-10-23T09:59:01;9.38;;;5.55;;
55082;SDS011;40978;52.850;6.506;2022-10-23T10:01:31;10.35;;;6.18;;
55082;SDS011;40978;52.850;6.506;2022-10-23T10:04:00;10.80;;;5.90;;
55082;SDS011;40978;52.850;6.506;2022-10-23T10:06:28;13.00;;;5.80;;
55082;SDS011;40978;52.850;6.506;2022-10-23T10:09:03;6.93;;;5.07;;
55082;SDS011;40978;52.850;6.506;2022-10-23T10:11:34;10.45;;;5.38;;
55082;SDS011;40978;52.850;6.506;2022-10-23T10:22:55;10.82;;;5.93;;
55082;SDS011;40978;52.850;6.506;2022-10-23T10:28:18;9.80;;;4.97;;
55082;SDS011;40978;52.850;6.506;2022-10-23T10:30:55;9.30;;;4.30;;
55082;SDS011;40978;52.850;6.506;2022-10-23T10:33:58;6.78;;;4.50;;
55082;SDS011;40978;52.850;6.506;2022-10-23T10:36:56;8.50;;;4.55;;
55082;SDS011;40978;52.850;6.506;2022-10-23T10:39:39;9.25;;;4.65;;
55082;SDS011;40978;52.850;6.506;2022-10-23T10:50:27;10.57;;;4.45;;
55082;SDS011;40978;52.850;6.506;2022-10-23T10:55:37;8.43;;;4.05;;
55082;SDS011;40978;52.850;6.506;2022-10-23T10:58:09;8.18;;;3.45;;
55082;SDS011;40978;52.850;6.506;2022-10-23T11:00:41;6.95;;;3.83;;
55082;SDS011;40978;52.850;6.506;2022-10-23T11:03:11;7.32;;;3.40;;
55082;SDS011;40978;52.850;6.506;2022-10-23T11:05:47;10.32;;;4.35;;
55082;SDS011;40978;52.850;6.506;2022-10-23T11:08:18;9.05;;;6.00;;
55082;SDS011;40978;52.850;6.506;2022-10-23T11:10:53;9.65;;;3.55;;
55082;SDS011;40978;52.850;6.506;2022-10-23T11:13:33;6.93;;;3.70;;
55082;SDS011;40978;52.850;6.506;2022-10-23T11:16:03;8.55;;;3.70;;
55082;SDS011;40978;52.850;6.506;2022-10-23T11:18:36;7.45;;;3.72;;
55082;SDS011;40978;52.850;6.506;2022-10-23T11:24:10;9.95;;;3.95;;
55082;SDS011;40978;52.850;6.506;2022-10-23T11:32:56;12.05;;;4.45;;
55082;SDS011;40978;52.850;6.506;2022-10-23T11:38:39;8.82;;;4.55;;
55082;SDS011;40978;52.850;6.506;2022-10-23T11:41:26;10.63;;;4.85;;
55082;SDS011;40978;52.850;6.506;2022-10-23T11:43:58;8.10;;;4.18;;
55082;SDS011;40978;52.850;6.506;2022-10-23T11:46:33;7.25;;;4.38;;
55082;SDS011;40978;52.850;6.506;2022-10-23T11:49:00;8.43;;;4.82;;
55082;SDS011;40978;52.850;6.506;2022-10-23T11:51:39;7.50;;;4.45;;
55082;SDS011;40978;52.850;6.506;2022-10-23T11:56:51;6.18;;;4.28;;
55082;SDS011;40978;52.850;6.506;2022-10-23T11:59:23;8.88;;;4.38;;
55082;SDS011;40978;52.850;6.506;2022-10-23T12:01:55;7.30;;;4.03;;
55082;SDS011;40978;52.850;6.506;2022-10-23T12:04:27;7.28;;;4.40;;
55082;SDS011;40978;52.850;6.506;2022-10-23T12:07:12;9.13;;;4.60;;
55082;SDS011;40978;52.850;6.506;2022-10-23T12:09:54;10.55;;;4.15;;
55082;SDS011;40978;52.850;6.506;2022-10-23T12:12:39;6.45;;;4.63;;
55082;SDS011;40978;52.850;6.506;2022-10-23T12:17:42;8.25;;;3.63;;
55082;SDS011;40978;52.850;6.506;2022-10-23T12:25:32;6.60;;;3.20;;
55082;SDS011;40978;52.850;6.506;2022-10-23T12:28:07;9.40;;;3.38;;
55082;SDS011;40978;52.850;6.506;2022-10-23T12:36:05;7.72;;;3.10;;
55082;SDS011;40978;52.850;6.506;2022-10-23T12:38:46;7.78;;;2.88;;
55082;SDS011;40978;52.850;6.506;2022-10-23T12:41:24;6.78;;;3.90;;
55082;SDS011;40978;52.850;6.506;2022-10-23T12:44:01;9.07;;;3.42;;
55082;SDS011;40978;52.850;6.506;2022-10-23T12:46:32;7.55;;;3.13;;
55082;SDS011;40978;52.850;6.506;2022-10-23T12:49:02;12.80;;;3.67;;
55082;SDS011;40978;52.850;6.506;2022-10-23T12:51:36;13.68;;;3.85;;
55082;SDS011;40978;52.850;6.506;2022-10-23T12:54:02;7.35;;;3.35;;
55082;SDS011;40978;52.850;6.506;2022-10-23T12:56:38;9.48;;;3.50;;
55082;SDS011;40978;52.850;6.506;2022-10-23T12:59:03;6.78;;;3.45;;
55082;SDS011;40978;52.850;6.506;2022-10-23T13:01:35;6.70;;;3.60;;
55082;SDS011;40978;52.850;6.506;2022-10-23T13:04:04;5.25;;;3.15;;
55082;SDS011;40978;52.850;6.506;2022-10-23T13:06:34;8.88;;;3.05;;
55082;SDS011;40978;52.850;6.506;2022-10-23T13:09:02;6.18;;;2.92;;
55082;SDS011;40978;52.850;6.506;2022-10-23T13:11:30;6.68;;;2.55;;
55082;SDS011;40978;52.850;6.506;2022-10-23T13:13:56;9.18;;;3.17;;
55082;SDS011;40978;52.850;6.506;2022-10-23T13:16:23;6.03;;;2.35;;
55082;SDS011;40978;52.850;6.506;2022-10-23T13:18:50;4.45;;;3.08;;
55082;SDS011;40978;52.850;6.506;2022-10-23T13:23:51;6.43;;;2.78;;
55082;SDS011;40978;52.850;6.506;2022-10-23T13:26:23;6.47;;;2.90;;
55082;SDS011;40978;52.850;6.506;2022-10-23T13:28:52;7.68;;;3.20;;
55082;SDS011;40978;52.850;6.506;2022-10-23T13:31:26;6.80;;;2.60;;
55082;SDS011;40978;52.850;6.506;2022-10-23T13:36:27;9.23;;;2.38;;
55082;SDS011;40978;52.850;6.506;2022-10-23T13:41:32;4.57;;;2.10;;
55082;SDS011;40978;52.850;6.506;2022-10-23T13:44:05;7.40;;;2.35;;
55082;SDS011;40978;52.850;6.506;2022-10-23T13:46:31;6.40;;;2.70;;
55082;SDS011;40978;52.850;6.506;2022-10-23T13:48:56;6.47;;;2.40;;
55082;SDS011;40978;52.850;6.506;2022-10-23T13:51:29;5.38;;;2.10;;
55082;SDS011;40978;52.850;6.506;2022-10-23T13:53:57;5.38;;;2.28;;
55082;SDS011;40978;52.850;6.506;2022-10-23T13:56:24;4.32;;;1.95;;
55082;SDS011;40978;52.850;6.506;2022-10-23T13:58:50;7.93;;;2.75;;
55082;SDS011;40978;52.850;6.506;2022-10-23T14:01:27;7.85;;;2.40;;
55082;SDS011;40978;52.850;6.506;2022-10-23T14:03:55;5.95;;;2.15;;
55082;SDS011;40978;52.850;6.506;2022-10-23T14:06:22;8.60;;;2.80;;
55082;SDS011;40978;52.850;6.506;2022-10-23T14:08:48;5.35;;;2.58;;
55082;SDS011;40978;52.850;6.506;2022-10-23T14:11:14;10.18;;;2.15;;
55082;SDS011;40978;52.850;6.506;2022-10-23T14:13:41;6.72;;;2.35;;
55082;SDS011;40978;52.850;6.506;2022-10-23T14:16:08;5.32;;;2.22;;
55082;SDS011;40978;52.850;6.506;2022-10-23T14:18:36;7.00;;;2.40;;
55082;SDS011;40978;52.850;6.506;2022-10-23T14:21:05;7.07;;;2.45;;
55082;SDS011;40978;52.850;6.506;2022-10-23T14:23:31;8.02;;;3.13;;
55082;SDS011;40978;52.850;6.506;2022-10-23T14:26:01;6.03;;;2.25;;
55082;SDS011;40978;52.850;6.506;2022-10-23T14:28:27;4.90;;;2.25;;
55082;SDS011;40978;52.850;6.506;2022-10-23T14:30:53;9.05;;;2.30;;
55082;SDS011;40978;52.850;6.506;2022-10-23T14:33:19;8.45;;;3.33;;
55082;SDS011;40978;52.850;6.506;2022-10-23T14:35:44;5.47;;;2.25;;
55082;SDS011;40978;52.850;6.506;2022-10-23T14:38:10;6.70;;;2.40;;
55082;SDS011;40978;52.850;6.506;2022-10-23T14:40:36;6.28;;;2.30;;
55082;SDS011;40978;52.850;6.506;2022-10-23T14:43:02;6.90;;;2.60;;
55082;SDS011;40978;52.850;6.506;2022-10-23T14:45:28;5.10;;;2.30;;
55082;SDS011;40978;52.850;6.506;2022-10-23T14:47:54;6.82;;;2.97;;
55082;SDS011;40978;52.850;6.506;2022-10-23T14:50:20;6.07;;;2.75;;
55082;SDS011;40978;52.850;6.506;2022-10-23T14:52:46;3.67;;;2.30;;
55082;SDS011;40978;52.850;6.506;2022-10-23T14:55:11;7.28;;;2.20;;
55082;SDS011;40978;52.850;6.506;2022-10-23T14:57:37;5.97;;;2.35;;
55082;SDS011;40978;52.850;6.506;2022-10-23T15:00:04;6.85;;;2.60;;
55082;SDS011;40978;52.850;6.506;2022-10-23T15:02:30;7.20;;;2.22;;
55082;SDS011;40978;52.850;6.506;2022-10-23T15:04:56;5.57;;;2.25;;
55082;SDS011;40978;52.850;6.506;2022-10-23T15:07:21;6.43;;;2.60;;
55082;SDS011;40978;52.850;6.506;2022-10-23T15:09:47;7.40;;;2.28;;
55082;SDS011;40978;52.850;6.506;2022-10-23T15:12:14;9.02;;;2.30;;
55082;SDS011;40978;52.850;6.506;2022-10-23T15:14:40;7.90;;;2.25;;
55082;SDS011;40978;52.850;6.506;2022-10-23T15:17:06;8.27;;;2.05;;
55082;SDS011;40978;52.850;6.506;2022-10-23T15:19:31;5.97;;;1.90;;
55082;SDS011;40978;52.850;6.506;2022-10-23T15:21:57;3.65;;;1.50;;
55082;SDS011;40978;52.850;6.506;2022-10-23T15:24:23;8.02;;;2.67;;
55082;SDS011;40978;52.850;6.506;2022-10-23T15:26:48;8.25;;;2.58;;
55082;SDS011;40978;52.850;6.506;2022-10-23T15:29:16;5.20;;;1.92;;
55082;SDS011;40978;52.850;6.506;2022-10-23T15:31:43;5.53;;;2.00;;
55082;SDS011;40978;52.850;6.506;2022-10-23T15:34:12;7.18;;;1.88;;
55082;SDS011;40978;52.850;6.506;2022-10-23T15:36:44;3.35;;;1.60;;
55082;SDS011;40978;52.850;6.506;2022-10-23T15:39:11;5.88;;;1.98;;
55082;SDS011;40978;52.850;6.506;2022-10-23T15:41:39;4.18;;;2.05;;
55082;SDS011;40978;52.850;6.506;2022-10-23T15:44:06;5.40;;;1.70;;
55082;SDS011;40978;52.850;6.506;2022-10-23T15:46:32;6.93;;;1.77;;
55082;SDS011;40978;52.850;6.506;2022-10-23T15:48:58;3.95;;;1.98;;
55082;SDS011;40978;52.850;6.506;2022-10-23T15:51:24;5.47;;;2.47;;
55082;SDS011;40978;52.850;6.506;2022-10-23T15:53:50;4.38;;;1.73;;
55082;SDS011;40978;52.850;6.506;2022-10-23T15:56:16;3.40;;;1.90;;
55082;SDS011;40978;52.850;6.506;2022-10-23T15:58:42;4.55;;;2.15;;
55082;SDS011;40978;52.850;6.506;2022-10-23T16:01:07;7.57;;;2.00;;
55082;SDS011;40978;52.850;6.506;2022-10-23T16:03:34;4.30;;;1.73;;
55082;SDS011;40978;52.850;6.506;2022-10-23T16:06:05;5.68;;;1.73;;
55082;SDS011;40978;52.850;6.506;2022-10-23T16:08:32;5.78;;;2.05;;
55082;SDS011;40978;52.850;6.506;2022-10-23T16:10:58;5.85;;;2.15;;
55082;SDS011;40978;52.850;6.506;2022-10-23T16:13:25;5.03;;;1.83;;
55082;SDS011;40978;52.850;6.506;2022-10-23T16:15:50;5.30;;;1.98;;
55082;SDS011;40978;52.850;6.506;2022-10-23T16:18:18;4.25;;;1.67;;
55082;SDS011;40978;52.850;6.506;2022-10-23T16:20:44;4.35;;;1.98;;
55082;SDS011;40978;52.850;6.506;2022-10-23T16:23:10;5.50;;;2.80;;